sensor_id;sensor_type;location;lat;lon;timestamp;pressure;altitude;pressure_sealevel;temperature;humidity
20228;BME280;12195;55.790;37.572;2023-03-15T00:00:19;99157.02;;;5.66;50.73
20228;BME280;12195;55.790;37.572;2023-03-15T00:02:51;99157.94;;;5.65;50.61
20228;BME280;12195;55.790;37.572;2023-03-15T00:05:23;99158.98;;;5.61;50.69
20228;BME280;12195;55.790;37.572;2023-03-15T00:07:55;99160.79;;;5.59;51.07
20228;BME280;12195;55.790;37.572;2023-03-15T00:10:28;99150.53;;;5.56;51.03
20228;BME280;12195;55.790;37.572;2023-03-15T00:13:00;99162.76;;;5.54;51.34
20228;BME280;12195;55.790;37.572;2023-03-15T00:15:32;99162.98;;;5.49;51.56
20228;BME280;12195;55.790;37.572;2023-03-15T00:18:04;99159.23;;;5.55;51.65
20228;BME280;12195;55.790;37.572;2023-03-15T00:20:36;99150.78;;;5.50;51.54
20228;BME280;12195;55.790;37.572;2023-03-15T00:23:09;99157.95;;;5.45;51.89
20228;BME280;12195;55.790;37.572;2023-03-15T00:25:43;99162.12;;;5.49;51.92
20228;BME280;12195;55.790;37.572;2023-03-15T00:28:14;99163.03;;;5.48;52.20
20228;BME280;12195;55.790;37.572;2023-03-15T00:30:46;99157.20;;;5.61;51.86
20228;BME280;12195;55.790;37.572;2023-03-15T00:33:18;99160.22;;;5.52;52.02
20228;BME280;12195;55.790;37.572;2023-03-15T00:35:51;99156.11;;;5.47;52.25
20228;BME280;12195;55.790;37.572;2023-03-15T00:38:24;99152.63;;;5.48;52.22
20228;BME280;12195;55.790;37.572;2023-03-15T00:40:55;99150.02;;;5.48;52.43
20228;BME280;12195;55.790;37.572;2023-03-15T00:43:28;99143.19;;;5.45;52.66
20228;BME280;12195;55.790;37.572;2023-03-15T00:46:00;99156.11;;;5.47;52.76
20228;BME280;12195;55.790;37.572;2023-03-15T00:48:33;99154.30;;;5.49;52.96
20228;BME280;12195;55.790;37.572;2023-03-15T00:51:11;99140.37;;;5.50;53.06
20228;BME280;12195;55.790;37.572;2023-03-15T00:53:45;99149.49;;;5.60;52.76
20228;BME280;12195;55.790;37.572;2023-03-15T00:56:24;99151.81;;;5.66;52.63
20228;BME280;12195;55.790;37.572;2023-03-15T00:58:52;99150.70;;;5.71;52.55
20228;BME280;12195;55.790;37.572;2023-03-15T01:01:27;99147.11;;;5.74;52.75
20228;BME280;12195;55.790;37.572;2023-03-15T01:03:59;99146.06;;;5.78;52.92
20228;BME280;12195;55.790;37.572;2023-03-15T01:06:31;99136.38;;;5.82;52.63
20228;BME280;12195;55.790;37.572;2023-03-15T01:09:04;99149.41;;;5.82;52.59
20228;BME280;12195;55.790;37.572;2023-03-15T01:11:36;99143.08;;;5.87;52.59
20228;BME280;12195;55.790;37.572;2023-03-15T01:14:09;99143.14;;;5.86;52.77
20228;BME280;12195;55.790;37.572;2023-03-15T01:16:41;99145.55;;;5.90;52.58
20228;BME280;12195;55.790;37.572;2023-03-15T01:19:13;99148.09;;;5.92;52.52
20228;BME280;12195;55.790;37.572;2023-03-15T01:21:45;99143.88;;;5.89;52.78
20228;BME280;12195;55.790;37.572;2023-03-15T01:24:19;99136.12;;;5.88;52.66
20228;BME280;12195;55.790;37.572;2023-03-15T01:26:52;99143.88;;;5.89;52.69
20228;BME280;12195;55.790;37.572;2023-03-15T01:29:24;99140.53;;;5.86;52.92
20228;BME280;12195;55.790;37.572;2023-03-15T01:31:56;99147.59;;;5.84;53.07
20228;BME280;12195;55.790;37.572;2023-03-15T01:34:28;99148.16;;;5.90;52.92
20228;BME280;12195;55.790;37.572;2023-03-15T01:37:00;99146.61;;;5.86;53.11
20228;BME280;12195;55.790;37.572;2023-03-15T01:39:37;99152.45;;;5.91;52.97
20228;BME280;12195;55.790;37.572;2023-03-15T01:42:10;99152.45;;;5.91;53.27
20228;BME280;12195;55.790;37.572;2023-03-15T01:44:47;99142.95;;;5.90;53.31
20228;BME280;12195;55.790;37.572;2023-03-15T01:47:21;99148.09;;;5.92;53.36
20228;BME280;12195;55.790;37.572;2023-03-15T01:50:01;99147.11;;;5.94;53.13
20228;BME280;12195;55.790;37.572;2023-03-15T01:52:36;99145.42;;;5.93;53.31
20228;BME280;12195;55.790;37.572;2023-03-15T01:55:14;99145.92;;;6.01;53.09
20228;BME280;12195;55.790;37.572;2023-03-15T01:57:58;99144.88;;;6.05;53.16
20228;BME280;12195;55.790;37.572;2023-03-15T02:00:32;99153.39;;;6.09;53.29
20228;BME280;12195;55.790;37.572;2023-03-15T02:03:11;99148.05;;;6.12;53.20
20228;BME280;12195;55.790;37.572;2023-03-15T02:05:52;99147.19;;;6.11;53.35
20228;BME280;12195;55.790;37.572;2023-03-15T02:08:28;99146.13;;;6.15;53.20
20228;BME280;12195;55.790;37.572;2023-03-15T02:11:04;99142.53;;;6.18;53.28
20228;BME280;12195;55.790;37.572;2023-03-15T02:13:36;99153.81;;;6.18;53.13
20228;BME280;12195;55.790;37.572;2023-03-15T02:16:10;99151.97;;;6.20;53.25
20228;BME280;12195;55.790;37.572;2023-03-15T02:18:44;99151.14;;;6.20;53.42
20228;BME280;12195;55.790;37.572;2023-03-15T02:24:24;99152.20;;;6.16;53.42
20228;BME280;12195;55.790;37.572;2023-03-15T02:26:55;99168.83;;;6.13;53.47
20228;BME280;12195;55.790;37.572;2023-03-15T02:29:28;99165.72;;;6.05;53.92
20228;BME280;12195;55.790;37.572;2023-03-15T02:32:01;99160.70;;;6.01;53.85
20228;BME280;12195;55.790;37.572;2023-03-15T02:34:36;99163.73;;;5.92;54.29
20228;BME280;12195;55.790;37.572;2023-03-15T02:37:08;99171.09;;;5.82;54.57
20228;BME280;12195;55.790;37.572;2023-03-15T02:39:40;99162.67;;;5.75;54.82
20228;BME280;12195;55.790;37.572;2023-03-15T02:42:14;99163.78;;;5.70;54.95
20228;BME280;12195;55.790;37.572;2023-03-15T02:44:47;99164.64;;;5.70;55.07
20228;BME280;12195;55.790;37.572;2023-03-15T02:47:26;99161.19;;;5.70;55.05
20228;BME280;12195;55.790;37.572;2023-03-15T02:49:58;99164.95;;;5.63;55.26
20228;BME280;12195;55.790;37.572;2023-03-15T02:52:31;99157.20;;;5.61;55.48
20228;BME280;12195;55.790;37.572;2023-03-15T02:55:04;99152.09;;;5.60;55.44
20228;BME280;12195;55.790;37.572;2023-03-15T02:57:37;99157.42;;;5.57;55.85
20228;BME280;12195;55.790;37.572;2023-03-15T03:00:10;99161.08;;;5.53;55.83
20228;BME280;12195;55.790;37.572;2023-03-15T03:02:46;99164.59;;;5.52;55.75
20228;BME280;12195;55.790;37.572;2023-03-15T03:05:19;99162.76;;;5.54;55.84
20228;BME280;12195;55.790;37.572;2023-03-15T03:07:51;99150.66;;;5.53;55.84
20228;BME280;12195;55.790;37.572;2023-03-15T03:10:24;99159.39;;;5.52;55.78
20228;BME280;12195;55.790;37.572;2023-03-15T03:12:57;99152.69;;;5.46;56.11
20228;BME280;12195;55.790;37.572;2023-03-15T03:15:31;99170.84;;;5.48;55.88
20228;BME280;12195;55.790;37.572;2023-03-15T03:18:03;99164.72;;;5.49;56.15
20228;BME280;12195;55.790;37.572;2023-03-15T03:20:36;99168.24;;;5.48;56.23
20228;BME280;12195;55.790;37.572;2023-03-15T03:23:08;99169.28;;;5.44;56.33
20228;BME280;12195;55.790;37.572;2023-03-15T03:25:40;99169.41;;;5.41;56.37
20228;BME280;12195;55.790;37.572;2023-03-15T03:28:14;99176.30;;;5.42;56.43
20228;BME280;12195;55.790;37.572;2023-03-15T03:30:46;99177.98;;;5.43;56.39
20228;BME280;12195;55.790;37.572;2023-03-15T03:33:19;99171.15;;;5.40;56.57
20228;BME280;12195;55.790;37.572;2023-03-15T03:35:52;99178.13;;;5.40;56.56
20228;BME280;12195;55.790;37.572;2023-03-15T03:38:24;99184.11;;;5.42;56.48
20228;BME280;12195;55.790;37.572;2023-03-15T03:40:58;99185.02;;;5.41;56.69
20228;BME280;12195;55.790;37.572;2023-03-15T03:43:32;99178.31;;;5.35;56.65
20228;BME280;12195;55.790;37.572;2023-03-15T03:46:05;99173.91;;;5.37;56.92
20228;BME280;12195;55.790;37.572;2023-03-15T03:48:40;99172.19;;;5.36;56.98
20228;BME280;12195;55.790;37.572;2023-03-15T03:51:12;99180.98;;;5.34;56.89
20228;BME280;12195;55.790;37.572;2023-03-15T03:53:44;99187.04;;;5.34;57.14
20228;BME280;12195;55.790;37.572;2023-03-15T03:56:17;99187.87;;;5.35;56.96
20228;BME280;12195;55.790;37.572;2023-03-15T03:58:49;99192.95;;;5.38;56.94
20228;BME280;12195;55.790;37.572;2023-03-15T04:01:22;99188.55;;;5.40;57.00
20228;BME280;12195;55.790;37.572;2023-03-15T04:04:07;99186.70;;;5.42;56.84
20228;BME280;12195;55.790;37.572;2023-03-15T04:06:42;99203.95;;;5.44;56.88
20228;BME280;12195;55.790;37.572;2023-03-15T04:09:18;99202.27;;;5.43;56.86
20228;BME280;12195;55.790;37.572;2023-03-15T04:11:51;99201.34;;;5.44;57.04
20228;BME280;12195;55.790;37.572;2023-03-15T04:14:24;99199.78;;;5.40;57.09
20228;BME280;12195;55.790;37.572;2023-03-15T04:16:56;99199.72;;;5.42;56.70
20228;BME280;12195;55.790;37.572;2023-03-15T04:19:29;99201.34;;;5.44;56.87
20228;BME280;12195;55.790;37.572;2023-03-15T04:22:02;99190.94;;;5.44;57.31
20228;BME280;12195;55.790;37.572;2023-03-15T04:24:45;99185.55;;;5.49;57.04
20228;BME280;12195;55.790;37.572;2023-03-15T04:27:20;99189.77;;;5.51;56.52
20228;BME280;12195;55.790;37.572;2023-03-15T04:30:00;99194.70;;;5.57;56.30
20228;BME280;12195;55.790;37.572;2023-03-15T04:32:54;99190.17;;;5.62;56.46
20228;BME280;12195;55.790;37.572;2023-03-15T04:35:46;99193.41;;;5.67;56.18
20228;BME280;12195;55.790;37.572;2023-03-15T04:38:37;99190.47;;;5.75;56.27
20228;BME280;12195;55.790;37.572;2023-03-15T04:41:17;99198.92;;;5.80;56.43
20228;BME280;12195;55.790;37.572;2023-03-15T04:44:01;99204.83;;;5.85;56.01
20228;BME280;12195;55.790;37.572;2023-03-15T04:46:35;99206.05;;;5.97;55.12
20228;BME280;12195;55.790;37.572;2023-03-15T04:49:15;99206.74;;;6.00;55.26
20228;BME280;12195;55.790;37.572;2023-03-15T04:51:53;99208.23;;;6.06;54.89
20228;BME280;12195;55.790;37.572;2023-03-15T04:54:30;99206.36;;;6.09;54.65
20228;BME280;12195;55.790;37.572;2023-03-15T04:57:20;99207.13;;;6.11;54.66
20228;BME280;12195;55.790;37.572;2023-03-15T04:59:57;99215.80;;;6.12;54.62
20228;BME280;12195;55.790;37.572;2023-03-15T05:02:45;99217.48;;;6.13;54.61
20228;BME280;12195;55.790;37.572;2023-03-15T05:05:21;99235.72;;;6.13;54.52
20228;BME280;12195;55.790;37.572;2023-03-15T05:07:59;99232.99;;;6.16;54.65
20228;BME280;12195;55.790;37.572;2023-03-15T05:10:37;99239.53;;;6.24;54.34
20228;BME280;12195;55.790;37.572;2023-03-15T05:13:11;99227.44;;;6.42;53.86
20228;BME280;12195;55.790;37.572;2023-03-15T05:15:45;99241.66;;;6.72;53.52
20228;BME280;12195;55.790;37.572;2023-03-15T05:18:19;99239.52;;;6.98;52.61
20228;BME280;12195;55.790;37.572;2023-03-15T05:21:06;99236.06;;;7.33;51.55
20228;BME280;12195;55.790;37.572;2023-03-15T05:23:44;99237.22;;;7.62;50.79
20228;BME280;12195;55.790;37.572;2023-03-15T05:26:18;99239.58;;;8.00;49.42
20228;BME280;12195;55.790;37.572;2023-03-15T05:28:56;99241.70;;;8.09;48.76
20228;BME280;12195;55.790;37.572;2023-03-15T05:31:31;99247.30;;;8.19;48.28
20228;BME280;12195;55.790;37.572;2023-03-15T05:34:15;99256.92;;;8.35;48.19
20228;BME280;12195;55.790;37.572;2023-03-15T05:37:01;99250.39;;;8.75;47.06
20228;BME280;12195;55.790;37.572;2023-03-15T05:39:50;99254.95;;;9.02;46.51
20228;BME280;12195;55.790;37.572;2023-03-15T05:42:24;99260.67;;;9.24;45.64
20228;BME280;12195;55.790;37.572;2023-03-15T05:45:01;99267.67;;;9.39;46.01
20228;BME280;12195;55.790;37.572;2023-03-15T05:47:47;99259.31;;;9.33;45.25
20228;BME280;12195;55.790;37.572;2023-03-15T05:50:31;99263.70;;;9.48;44.65
20228;BME280;12195;55.790;37.572;2023-03-15T05:53:17;99270.04;;;9.44;44.79
20228;BME280;12195;55.790;37.572;2023-03-15T05:55:52;99264.80;;;9.28;45.21
20228;BME280;12195;55.790;37.572;2023-03-15T05:58:41;99272.52;;;9.16;45.53
20228;BME280;12195;55.790;37.572;2023-03-15T06:01:32;99270.23;;;9.25;45.01
20228;BME280;12195;55.790;37.572;2023-03-15T06:04:18;99266.70;;;9.11;45.34
20228;BME280;12195;55.790;37.572;2023-03-15T06:06:51;99273.71;;;8.95;45.15
20228;BME280;12195;55.790;37.572;2023-03-15T06:09:24;99272.51;;;8.85;45.61
20228;BME280;12195;55.790;37.572;2023-03-15T06:11:56;99279.97;;;8.92;45.70
20228;BME280;12195;55.790;37.572;2023-03-15T06:14:29;99270.23;;;9.10;45.48
20228;BME280;12195;55.790;37.572;2023-03-15T06:17:03;99263.80;;;9.76;44.71
20228;BME280;12195;55.790;37.572;2023-03-15T06:19:36;99266.08;;;10.39;42.24
20228;BME280;12195;55.790;37.572;2023-03-15T06:22:08;99263.64;;;11.05;41.33
20228;BME280;12195;55.790;37.572;2023-03-15T06:24:42;99267.37;;;11.42;40.57
20228;BME280;12195;55.790;37.572;2023-03-15T06:27:14;99268.09;;;11.97;39.63
20228;BME280;12195;55.790;37.572;2023-03-15T06:29:48;99276.64;;;12.13;39.20
20228;BME280;12195;55.790;37.572;2023-03-15T06:32:22;99272.02;;;12.29;38.85
20228;BME280;12195;55.790;37.572;2023-03-15T06:34:57;99276.63;;;12.75;37.78
20228;BME280;12195;55.790;37.572;2023-03-15T06:37:30;99273.95;;;13.60;36.37
20228;BME280;12195;55.790;37.572;2023-03-15T06:40:06;99274.91;;;14.28;35.15
20228;BME280;12195;55.790;37.572;2023-03-15T06:42:40;99284.31;;;14.43;34.45
20228;BME280;12195;55.790;37.572;2023-03-15T06:45:15;99281.94;;;14.62;34.30
20228;BME280;12195;55.790;37.572;2023-03-15T06:47:49;99286.61;;;15.02;33.95
20228;BME280;12195;55.790;37.572;2023-03-15T06:50:22;99289.37;;;15.12;33.61
20228;BME280;12195;55.790;37.572;2023-03-15T06:52:56;99284.33;;;14.76;34.03
20228;BME280;12195;55.790;37.572;2023-03-15T06:55:29;99288.99;;;14.50;34.30
20228;BME280;12195;55.790;37.572;2023-03-15T06:58:02;99294.07;;;14.19;35.44
20228;BME280;12195;55.790;37.572;2023-03-15T07:00:34;99294.19;;;13.83;35.92
20228;BME280;12195;55.790;37.572;2023-03-15T07:03:06;99305.70;;;13.82;36.10
20228;BME280;12195;55.790;37.572;2023-03-15T07:05:39;99304.52;;;13.86;36.17
20228;BME280;12195;55.790;37.572;2023-03-15T07:08:12;99305.43;;;13.74;35.94
20228;BME280;12195;55.790;37.572;2023-03-15T07:10:45;99299.52;;;13.47;36.44
20228;BME280;12195;55.790;37.572;2023-03-15T07:13:18;99299.56;;;13.11;37.37
20228;BME280;12195;55.790;37.572;2023-03-15T07:15:52;99305.81;;;12.60;37.85
20228;BME280;12195;55.790;37.572;2023-03-15T07:18:25;99308.64;;;12.19;38.90
20228;BME280;12195;55.790;37.572;2023-03-15T07:20:59;99298.80;;;11.84;39.98
20228;BME280;12195;55.790;37.572;2023-03-15T07:23:32;99310.89;;;11.60;40.30
20228;BME280;12195;55.790;37.572;2023-03-15T07:26:04;99314.14;;;11.77;40.71
20228;BME280;12195;55.790;37.572;2023-03-15T07:28:36;99311.05;;;11.44;40.30
20228;BME280;12195;55.790;37.572;2023-03-15T07:31:09;99320.54;;;11.33;40.59
20228;BME280;12195;55.790;37.572;2023-03-15T07:33:42;99316.33;;;11.30;40.92
20228;BME280;12195;55.790;37.572;2023-03-15T07:36:14;99325.80;;;11.33;41.09
20228;BME280;12195;55.790;37.572;2023-03-15T07:38:47;99327.95;;;11.40;41.57
20228;BME280;12195;55.790;37.572;2023-03-15T07:41:19;99321.41;;;11.60;41.41
20228;BME280;12195;55.790;37.572;2023-03-15T07:43:57;99318.55;;;11.77;41.05
20228;BME280;12195;55.790;37.572;2023-03-15T07:46:29;99314.14;;;11.77;41.11
20228;BME280;12195;55.790;37.572;2023-03-15T07:49:02;99321.08;;;11.78;41.37
20228;BME280;12195;55.790;37.572;2023-03-15T07:51:34;99317.06;;;11.73;40.78
20228;BME280;12195;55.790;37.572;2023-03-15T07:54:08;99318.30;;;11.67;41.34
20228;BME280;12195;55.790;37.572;2023-03-15T07:56:41;99331.48;;;11.53;42.24
20228;BME280;12195;55.790;37.572;2023-03-15T07:59:14;99317.98;;;11.45;42.56
20228;BME280;12195;55.790;37.572;2023-03-15T08:01:48;99336.29;;;11.47;42.49
20228;BME280;12195;55.790;37.572;2023-03-15T08:04:21;99343.23;;;11.48;41.50
20228;BME280;12195;55.790;37.572;2023-03-15T08:06:53;99331.31;;;11.42;41.86
20228;BME280;12195;55.790;37.572;2023-03-15T08:09:27;99342.97;;;11.38;43.16
20228;BME280;12195;55.790;37.572;2023-03-15T08:12:01;99345.00;;;11.47;42.72
20228;BME280;12195;55.790;37.572;2023-03-15T08:14:34;99343.82;;;11.39;42.40
20228;BME280;12195;55.790;37.572;2023-03-15T08:17:07;99340.43;;;11.37;41.62
20228;BME280;12195;55.790;37.572;2023-03-15T08:19:41;99343.58;;;11.56;42.03
20228;BME280;12195;55.790;37.572;2023-03-15T08:22:14;99346.68;;;11.22;42.10
20228;BME280;12195;55.790;37.572;2023-03-15T08:24:46;99340.69;;;11.06;42.37
20228;BME280;12195;55.790;37.572;2023-03-15T08:27:20;99342.28;;;10.94;42.87
20228;BME280;12195;55.790;37.572;2023-03-15T08:29:52;99350.17;;;10.80;43.44
20228;BME280;12195;55.790;37.572;2023-03-15T08:32:25;99353.28;;;10.72;44.18
20228;BME280;12195;55.790;37.572;2023-03-15T08:34:57;99350.27;;;10.64;43.38
20228;BME280;12195;55.790;37.572;2023-03-15T08:37:30;99348.95;;;10.57;43.74
20228;BME280;12195;55.790;37.572;2023-03-15T08:40:06;99350.80;;;10.55;44.11
20228;BME280;12195;55.790;37.572;2023-03-15T08:42:40;99353.25;;;10.44;44.64
20228;BME280;12195;55.790;37.572;2023-03-15T08:45:14;99354.06;;;10.45;45.44
20228;BME280;12195;55.790;37.572;2023-03-15T08:47:47;99348.73;;;10.46;44.45
20228;BME280;12195;55.790;37.572;2023-03-15T08:50:19;99350.23;;;10.50;44.92
20228;BME280;12195;55.790;37.572;2023-03-15T08:52:53;99351.39;;;10.60;45.22
20228;BME280;12195;55.790;37.572;2023-03-15T08:55:28;99344.08;;;10.65;45.45
20228;BME280;12195;55.790;37.572;2023-03-15T08:58:02;99350.27;;;10.78;45.72
20228;BME280;12195;55.790;37.572;2023-03-15T09:00:34;99352.87;;;10.92;45.42
20228;BME280;12195;55.790;37.572;2023-03-15T09:03:08;99349.48;;;11.04;45.53
20228;BME280;12195;55.790;37.572;2023-03-15T09:05:40;99342.28;;;11.08;44.34
20228;BME280;12195;55.790;37.572;2023-03-15T09:08:13;99349.03;;;11.12;45.64
20228;BME280;12195;55.790;37.572;2023-03-15T09:10:46;99330.73;;;11.11;44.95
20228;BME280;12195;55.790;37.572;2023-03-15T09:13:19;99347.05;;;11.16;46.14
20228;BME280;12195;55.790;37.572;2023-03-15T09:15:52;99343.47;;;11.17;45.43
20228;BME280;12195;55.790;37.572;2023-03-15T09:18:25;99341.61;;;11.19;46.14
20228;BME280;12195;55.790;37.572;2023-03-15T09:20:58;99336.80;;;11.25;45.73
20228;BME280;12195;55.790;37.572;2023-03-15T09:23:32;99334.36;;;11.22;46.39
20228;BME280;12195;55.790;37.572;2023-03-15T09:26:06;99350.03;;;11.24;44.88
20228;BME280;12195;55.790;37.572;2023-03-15T09:28:38;99334.55;;;11.19;46.19
20228;BME280;12195;55.790;37.572;2023-03-15T09:31:11;99329.29;;;11.19;46.18
20228;BME280;12195;55.790;37.572;2023-03-15T09:33:43;99329.78;;;11.12;45.71
20228;BME280;12195;55.790;37.572;2023-03-15T09:36:19;99333.91;;;11.16;46.40
20228;BME280;12195;55.790;37.572;2023-03-15T09:38:51;99337.08;;;11.21;45.81
20228;BME280;12195;55.790;37.572;2023-03-15T09:46:47;99348.56;;;11.60;45.12
20228;BME280;12195;55.790;37.572;2023-03-15T09:52:25;99346.02;;;11.59;44.84
20228;BME280;12195;55.790;37.572;2023-03-15T09:55:12;99341.97;;;11.67;45.54
20228;BME280;12195;55.790;37.572;2023-03-15T09:57:39;99346.24;;;11.82;44.91
20228;BME280;12195;55.790;37.572;2023-03-15T10:00:13;99359.42;;;11.95;44.44
20228;BME280;12195;55.790;37.572;2023-03-15T10:02:57;99355.88;;;12.08;45.01
20228;BME280;12195;55.790;37.572;2023-03-15T10:05:39;99357.51;;;12.23;43.69
20228;BME280;12195;55.790;37.572;2023-03-15T10:08:14;99344.34;;;12.23;43.64
20228;BME280;12195;55.790;37.572;2023-03-15T10:11:41;99349.28;;;12.28;43.22
20228;BME280;12195;55.790;37.572;2023-03-15T10:13:38;99341.95;;;12.33;43.42
20228;BME280;12195;55.790;37.572;2023-03-15T10:16:21;99342.04;;;12.44;43.62
20228;BME280;12195;55.790;37.572;2023-03-15T10:19:01;99335.41;;;12.51;43.73
20228;BME280;12195;55.790;37.572;2023-03-15T10:21:48;99338.67;;;12.54;43.38
20228;BME280;12195;55.790;37.572;2023-03-15T10:29:56;99330.78;;;12.42;43.65
20228;BME280;12195;55.790;37.572;2023-03-15T10:32:36;99338.68;;;12.42;43.58
20228;BME280;12195;55.790;37.572;2023-03-15T10:35:16;99337.83;;;12.41;43.84
20228;BME280;12195;55.790;37.572;2023-03-15T10:37:41;99327.95;;;12.45;44.07
20228;BME280;12195;55.790;37.572;2023-03-15T10:40:15;99330.78;;;12.42;44.31
20228;BME280;12195;55.790;37.572;2023-03-15T10:42:49;99340.06;;;12.47;44.28
20228;BME280;12195;55.790;37.572;2023-03-15T10:45:24;99344.27;;;12.50;43.27
20228;BME280;12195;55.790;37.572;2023-03-15T10:47:58;99340.58;;;12.52;43.71
20228;BME280;12195;55.790;37.572;2023-03-15T10:50:32;99343.11;;;12.54;43.92
20228;BME280;12195;55.790;37.572;2023-03-15T10:53:09;99341.72;;;12.61;43.71
20228;BME280;12195;55.790;37.572;2023-03-15T10:55:44;99330.34;;;12.73;43.08
20228;BME280;12195;55.790;37.572;2023-03-15T10:58:28;99334.05;;;12.83;43.31
20228;BME280;12195;55.790;37.572;2023-03-15T11:01:05;99331.27;;;12.97;43.05
20228;BME280;12195;55.790;37.572;2023-03-15T11:03:38;99330.33;;;13.23;42.58
20228;BME280;12195;55.790;37.572;2023-03-15T11:06:19;99323.74;;;13.28;42.29
20228;BME280;12195;55.790;37.572;2023-03-15T11:08:52;99330.67;;;13.42;42.61
20228;BME280;12195;55.790;37.572;2023-03-15T11:11:24;99333.78;;;13.59;42.58
20228;BME280;12195;55.790;37.572;2023-03-15T11:14:00;99331.64;;;13.64;41.27
20228;BME280;12195;55.790;37.572;2023-03-15T11:16:34;99329.39;;;13.71;41.92
20228;BME280;12195;55.790;37.572;2023-03-15T11:19:17;99339.52;;;13.77;42.02
20228;BME280;12195;55.790;37.572;2023-03-15T11:21:50;99334.52;;;13.85;41.04
20228;BME280;12195;55.790;37.572;2023-03-15T11:24:30;99330.42;;;13.81;41.25
20228;BME280;12195;55.790;37.572;2023-03-15T11:27:13;99336.41;;;13.83;41.23
20228;BME280;12195;55.790;37.572;2023-03-15T11:29:53;99334.56;;;13.72;41.46
20228;BME280;12195;55.790;37.572;2023-03-15T11:32:25;99330.92;;;13.62;41.35
20228;BME280;12195;55.790;37.572;2023-03-15T11:35:13;99335.56;;;13.59;41.35
20228;BME280;12195;55.790;37.572;2023-03-15T11:37:51;99335.81;;;13.56;41.77
20228;BME280;12195;55.790;37.572;2023-03-15T11:40:32;99332.71;;;13.62;42.75
20228;BME280;12195;55.790;37.572;2023-03-15T11:43:10;99340.20;;;13.68;41.20
20228;BME280;12195;55.790;37.572;2023-03-15T11:45:44;99328.22;;;13.75;41.56
20228;BME280;12195;55.790;37.572;2023-03-15T11:48:39;99326.81;;;13.82;41.46
20228;BME280;12195;55.790;37.572;2023-03-15T11:51:13;99324.67;;;13.87;41.27
20228;BME280;12195;55.790;37.572;2023-03-15T11:54:15;99312.91;;;13.80;41.67
20228;BME280;12195;55.790;37.572;2023-03-15T11:56:51;99314.80;;;13.78;41.75
20228;BME280;12195;55.790;37.572;2023-03-15T12:04:45;99308.29;;;13.94;41.19
20228;BME280;12195;55.790;37.572;2023-03-15T12:12:36;99316.53;;;13.90;41.23
20228;BME280;12195;55.790;37.572;2023-03-15T12:17:57;99326.38;;;13.88;42.00
20228;BME280;12195;55.790;37.572;2023-03-15T12:23:44;99334.53;;;13.61;41.66
20228;BME280;12195;55.790;37.572;2023-03-15T12:27:01;99346.58;;;13.53;42.48
20228;BME280;12195;55.790;37.572;2023-03-15T12:29:09;99341.72;;;13.47;41.97
20228;BME280;12195;55.790;37.572;2023-03-15T12:32:10;99341.33;;;13.40;42.01
20228;BME280;12195;55.790;37.572;2023-03-15T12:34:27;99333.81;;;13.47;42.26
20228;BME280;12195;55.790;37.572;2023-03-15T12:37:03;99334.53;;;13.61;41.74
20228;BME280;12195;55.790;37.572;2023-03-15T12:39:40;99335.34;;;13.85;41.85
20228;BME280;12195;55.790;37.572;2023-03-15T12:43:02;99329.77;;;14.24;41.52
20228;BME280;12195;55.790;37.572;2023-03-15T12:44:48;99319.77;;;14.51;39.89
20228;BME280;12195;55.790;37.572;2023-03-15T12:47:21;99328.53;;;15.18;39.22
20228;BME280;12195;55.790;37.572;2023-03-15T12:49:54;99333.08;;;16.23;37.29
20228;BME280;12195;55.790;37.572;2023-03-15T12:52:39;99334.61;;;16.87;35.90
20228;BME280;12195;55.790;37.572;2023-03-15T12:55:20;99328.94;;;17.31;35.38
20228;BME280;12195;55.790;37.572;2023-03-15T12:57:49;99335.48;;;17.57;34.68
20228;BME280;12195;55.790;37.572;2023-03-15T13:00:26;99341.52;;;17.29;34.61
20228;BME280;12195;55.790;37.572;2023-03-15T13:03:11;99334.53;;;16.98;34.86
20228;BME280;12195;55.790;37.572;2023-03-15T13:05:57;99339.22;;;16.85;35.27
20228;BME280;12195;55.790;37.572;2023-03-15T13:11:14;99344.31;;;18.62;32.46
20228;BME280;12195;55.790;37.572;2023-03-15T13:14:01;99341.15;;;18.95;31.63
20228;BME280;12195;55.790;37.572;2023-03-15T13:19:22;99339.27;;;17.74;33.95
20228;BME280;12195;55.790;37.572;2023-03-15T13:25:16;99324.31;;;20.03;30.43
20228;BME280;12195;55.790;37.572;2023-03-15T13:27:48;99327.11;;;21.31;28.13
20228;BME280;12195;55.790;37.572;2023-03-15T13:30:30;99309.31;;;22.29;27.22
20228;BME280;12195;55.790;37.572;2023-03-15T13:33:09;99311.03;;;23.08;25.87
20228;BME280;12195;55.790;37.572;2023-03-15T13:35:48;99312.40;;;24.12;24.77
20228;BME280;12195;55.790;37.572;2023-03-15T13:38:30;99302.78;;;24.62;23.82
20228;BME280;12195;55.790;37.572;2023-03-15T13:41:04;99298.02;;;25.02;22.99
20228;BME280;12195;55.790;37.572;2023-03-15T13:43:38;99302.99;;;25.19;22.92
20228;BME280;12195;55.790;37.572;2023-03-15T13:46:12;99288.08;;;25.02;23.02
20228;BME280;12195;55.790;37.572;2023-03-15T13:48:46;99286.97;;;24.96;22.94
20228;BME280;12195;55.790;37.572;2023-03-15T13:51:30;99285.21;;;24.89;22.91
20228;BME280;12195;55.790;37.572;2023-03-15T13:54:25;99293.36;;;25.10;22.86
20228;BME280;12195;55.790;37.572;2023-03-15T13:59:45;99290.84;;;26.23;21.57
20228;BME280;12195;55.790;37.572;2023-03-15T14:02:31;99297.86;;;26.45;21.42
20228;BME280;12195;55.790;37.572;2023-03-15T14:05:02;99286.64;;;26.63;21.14
20228;BME280;12195;55.790;37.572;2023-03-15T14:07:35;99289.58;;;26.68;21.23
20228;BME280;12195;55.790;37.572;2023-03-15T14:10:33;99284.73;;;26.84;20.80
20228;BME280;12195;55.790;37.572;2023-03-15T14:13:24;99299.42;;;25.77;21.14
20228;BME280;12195;55.790;37.572;2023-03-15T14:16:04;99295.75;;;23.33;23.94
20228;BME280;12195;55.790;37.572;2023-03-15T14:18:39;99301.33;;;20.88;26.86
20228;BME280;12195;55.790;37.572;2023-03-15T14:21:27;99304.20;;;18.92;30.23
20228;BME280;12195;55.790;37.572;2023-03-15T14:23:50;99306.29;;;17.27;32.66